Time;durP1;ratioP1;P1;durP2;ratioP2;P2;SDS_P1;SDS_P2;PMS_P1;PMS_P2;Temp;Humidity;BMP_temperature;BMP_pressure;BME280_temperature;BME280_humidity;BME280_pressure;Samples;Min_cycle;Max_cycle;Signal;HPM_P1;HPM_P2
2021/07/23 00:00:12;;;;;;;12.25;7.30;;;;;;;18.42;66.50;100618.50;5021548;28;20137;-79
2021/07/23 00:02:39;;;;;;;10.15;7.55;;;;;;;18.36;66.75;100612.78;5012167;28;20160;-79
2021/07/23 00:05:05;;;;;;;12.23;7.28;;;;;;;18.36;67.44;100623.50;5015631;28;20054;-78
2021/07/23 00:07:33;;;;;;;11.60;6.85;;;;;;;18.35;67.62;100622.66;5021204;28;20076;-78
2021/07/23 00:10:00;;;;;;;10.70;6.90;;;;;;;18.35;67.83;100619.09;5023338;28;20438;-78
2021/07/23 00:12:27;;;;;;;10.85;7.18;;;;;;;18.36;68.10;100616.31;5036677;28;20076;-78
2021/07/23 00:14:55;;;;;;;10.52;7.05;;;;;;;18.37;68.21;100620.69;5014150;28;20042;-79
2021/07/23 00:17:21;;;;;;;10.98;7.00;;;;;;;18.35;67.64;100621.78;5013855;28;20049;-79
2021/07/23 00:19:48;;;;;;;12.25;7.25;;;;;;;18.33;68.06;100626.41;5026417;28;20488;-79
2021/07/23 00:22:15;;;;;;;14.80;7.35;;;;;;;18.25;68.24;100629.69;5025279;28;20086;-79
2021/07/23 00:24:41;;;;;;;10.57;7.63;;;;;;;18.19;68.85;100627.44;5024452;28;20136;-79
2021/07/23 00:27:09;;;;;;;12.32;7.65;;;;;;;18.13;68.71;100626.06;5015513;28;20046;-79
2021/07/23 00:29:36;;;;;;;12.60;7.65;;;;;;;18.07;69.18;100629.22;5021706;28;20054;-79
2021/07/23 00:32:03;;;;;;;14.32;7.38;;;;;;;18.05;69.25;100623.13;5017558;28;20045;-79
2021/07/23 00:34:30;;;;;;;10.10;7.25;;;;;;;18.05;69.54;100624.94;5013045;28;20076;-79
2021/07/23 00:36:57;;;;;;;10.43;6.95;;;;;;;18.04;69.36;100626.75;5016709;28;20081;-79
2021/07/23 00:39:24;;;;;;;10.57;7.75;;;;;;;18.01;69.58;100621.63;5015952;28;20420;-79
2021/07/23 00:41:51;;;;;;;14.05;7.35;;;;;;;18.01;69.88;100620.78;5015602;28;20069;-79
2021/07/23 00:44:18;;;;;;;9.07;6.78;;;;;;;18.01;69.69;100618.09;5018913;28;20049;-80
2021/07/23 00:46:45;;;;;;;13.27;7.30;;;;;;;18.00;69.83;100608.34;5019448;28;20466;-79
2021/07/23 00:49:13;;;;;;;13.48;7.57;;;;;;;17.98;70.03;100618.31;5016416;28;20049;-79
2021/07/23 00:51:40;;;;;;;10.55;7.43;;;;;;;17.94;70.20;100615.03;5022732;28;20058;-80
2021/07/23 00:54:07;;;;;;;14.93;8.00;;;;;;;17.91;70.23;100619.75;5010514;28;20540;-79
2021/07/23 00:56:36;;;;;;;10.60;7.75;;;;;;;17.88;70.70;100621.69;5033008;28;20098;-79
2021/07/23 00:59:03;;;;;;;9.75;6.72;;;;;;;17.91;71.11;100622.44;5028995;28;20054;-80
2021/07/23 01:01:54;;;;;;;11.43;7.45;;;;;;;17.85;70.85;100605.84;5013693;28;20108;-80
2021/07/23 01:04:21;;;;;;;12.27;7.88;;;;;;;17.77;71.37;100610.06;5029300;28;20045;-80
2021/07/23 01:06:48;;;;;;;9.98;7.35;;;;;;;17.68;71.93;100619.59;5029284;28;20141;-80
2021/07/23 01:09:15;;;;;;;11.10;7.70;;;;;;;17.58;72.42;100607.84;5032256;28;20038;-79
2021/07/23 01:11:42;;;;;;;12.77;7.55;;;;;;;17.55;72.77;100618.75;5035071;28;20059;-80
2021/07/23 01:14:09;;;;;;;10.38;6.93;;;;;;;17.56;72.88;100620.47;5031012;28;20049;-81
2021/07/23 01:16:36;;;;;;;12.95;8.00;;;;;;;17.54;72.69;100606.34;5024502;28;20049;-80
2021/07/23 01:19:06;;;;;;;15.90;7.95;;;;;;;17.45;73.28;100609.69;5006421;28;20062;-80
2021/07/23 01:21:35;;;;;;;13.43;7.80;;;;;;;17.39;73.62;100613.66;5004893;28;20080;-80
2021/07/23 01:24:02;;;;;;;12.00;7.75;;;;;;;17.42;73.75;100609.91;5011305;28;20054;-80
2021/07/23 01:26:29;;;;;;;10.15;7.45;;;;;;;17.45;73.80;100607.00;5011490;28;20628;-80
2021/07/23 01:28:55;;;;;;;12.63;8.10;;;;;;;17.45;73.74;100607.88;5016770;28;20056;-80
2021/07/23 01:31:22;;;;;;;10.07;7.70;;;;;;;17.49;73.65;100609.34;5016054;28;20046;-80
2021/07/23 01:33:49;;;;;;;11.38;7.53;;;;;;;17.48;73.05;100607.63;5015626;28;20060;-80
2021/07/23 01:36:15;;;;;;;12.10;8.02;;;;;;;17.39;73.64;100608.31;5015874;28;20056;-80
2021/07/23 01:38:44;;;;;;;13.27;8.02;;;;;;;17.31;74.07;100601.78;5017586;28;20121;-80
2021/07/23 01:41:13;;;;;;;13.48;8.15;;;;;;;17.20;74.44;100602.53;5015801;28;20054;-80
2021/07/23 01:43:40;;;;;;;14.57;7.90;;;;;;;17.17;74.59;100608.97;5016831;28;20049;-80
2021/07/23 01:46:08;;;;;;;11.98;7.80;;;;;;;17.14;75.05;100603.00;5017858;28;20058;-80
2021/07/23 01:48:34;;;;;;;15.13;8.43;;;;;;;17.10;75.03;100606.84;5016221;28;20486;-82
2021/07/23 01:51:01;;;;;;;11.98;7.63;;;;;;;17.06;75.28;100603.53;5027252;28;20118;-79
2021/07/23 01:53:30;;;;;;;12.82;8.23;;;;;;;17.06;75.28;100606.19;5021648;28;20105;-79
2021/07/23 01:55:56;;;;;;;14.85;8.32;;;;;;;17.02;75.14;100604.69;5035258;28;20105;-80
2021/07/23 01:58:23;;;;;;;12.63;7.90;;;;;;;17.01;75.14;100602.97;5027169;28;20060;-80
2021/07/23 02:00:57;;;;;;;11.88;7.75;;;;;;;16.99;75.24;100599.59;5028394;28;20033;-80
2021/07/23 02:03:24;;;;;;;14.32;8.35;;;;;;;16.99;75.36;100599.59;5023433;28;20056;-80
2021/07/23 02:05:52;;;;;;;11.20;7.55;;;;;;;16.99;75.42;100601.41;5010893;28;20097;-80
2021/07/23 02:08:19;;;;;;;13.75;8.15;;;;;;;16.97;75.34;100600.66;5023837;28;20042;-80
2021/07/23 02:10:46;;;;;;;10.55;7.95;;;;;;;16.94;75.81;100593.69;5022272;28;20054;-80
2021/07/23 02:13:14;;;;;;;12.15;8.18;;;;;;;16.97;76.03;100598.84;5022884;28;20046;-80
2021/07/23 02:15:41;;;;;;;11.60;7.63;;;;;;;16.96;75.93;100593.59;5002650;28;20058;-80
2021/07/23 02:18:10;;;;;;;11.13;7.87;;;;;;;16.94;75.97;100585.66;5019601;28;20109;-80
2021/07/23 02:20:37;;;;;;;11.02;7.68;;;;;;;17.00;76.02;100589.75;5037452;28;20479;-80
2021/07/23 02:23:05;;;;;;;15.35;7.85;;;;;;;17.03;76.11;100590.34;5033588;28;20049;-79
2021/07/23 02:25:32;;;;;;;12.20;8.07;;;;;;;17.02;76.12;100591.31;5020874;28;20105;-80
2021/07/23 02:27:59;;;;;;;10.70;7.63;;;;;;;16.98;76.09;100587.16;5034030;28;20048;-80
2021/07/23 02:30:25;;;;;;;11.60;7.82;;;;;;;16.92;75.77;100587.59;5034371;28;20049;-80
2021/07/23 02:32:52;;;;;;;11.13;8.00;;;;;;;16.85;76.82;100588.97;5032749;28;20049;-80
2021/07/23 02:35:19;;;;;;;12.70;8.10;;;;;;;16.75;76.88;100595.94;5041148;28;20140;-79
2021/07/23 02:37:45;;;;;;;11.93;8.27;;;;;;;16.65;77.60;100593.03;5027621;28;20151;-79
2021/07/23 02:40:12;;;;;;;15.35;8.20;;;;;;;16.57;77.82;100597.16;5025302;28;20046;-79
2021/07/23 02:42:39;;;;;;;13.43;8.55;;;;;;;16.56;78.23;100590.09;5017049;28;20069;-79
2021/07/23 02:45:06;;;;;;;12.38;8.15;;;;;;;16.57;78.13;100602.50;5026336;28;20140;-79
2021/07/23 02:47:32;;;;;;;14.07;8.45;;;;;;;16.51;78.22;100594.94;5021284;28;20041;-79
2021/07/23 02:49:59;;;;;;;13.93;8.15;;;;;;;16.46;78.41;100592.56;5024419;28;20072;-79
2021/07/23 02:52:25;;;;;;;12.90;8.43;;;;;;;16.42;78.70;100591.03;5027369;28;20049;-79
2021/07/23 02:54:52;;;;;;;12.30;8.27;;;;;;;16.40;78.83;100595.63;5024440;28;20060;-79
2021/07/23 02:57:19;;;;;;;13.20;8.40;;;;;;;16.37;78.81;100591.34;5026461;28;20054;-79
2021/07/23 02:59:46;;;;;;;13.70;8.50;;;;;;;16.32;78.98;100581.94;5029476;28;20758;-79
2021/07/23 03:02:13;;;;;;;14.70;8.52;;;;;;;16.31;79.23;100583.75;5021120;28;20084;-80
2021/07/23 03:04:40;;;;;;;13.27;8.25;;;;;;;16.30;79.01;100571.38;5037615;28;20053;-79
2021/07/23 03:07:08;;;;;;;14.82;8.63;;;;;;;16.27;78.83;100574.25;5031809;28;20050;-80
2021/07/23 03:09:35;;;;;;;12.50;8.18;;;;;;;16.26;78.98;100577.00;5019989;28;20668;-79
2021/07/23 03:12:02;;;;;;;11.35;7.55;;;;;;;16.24;79.09;100566.41;5019337;28;20217;-80
2021/07/23 03:14:30;;;;;;;13.38;8.88;;;;;;;16.23;79.12;100570.06;5024246;28;20052;-80
2021/07/23 03:16:58;;;;;;;11.63;8.48;;;;;;;16.23;79.22;100564.72;5019828;28;20069;-80
2021/07/23 03:19:24;;;;;;;12.75;8.38;;;;;;;16.26;79.46;100563.66;5015559;28;20100;-80
2021/07/23 03:21:54;;;;;;;12.27;8.30;;;;;;;16.26;79.18;100560.97;5000035;28;20050;-81
2021/07/23 03:24:21;;;;;;;12.25;8.07;;;;;;;16.22;79.12;100567.47;5001485;28;20053;-81
2021/07/23 03:26:47;;;;;;;10.63;8.20;;;;;;;16.19;79.48;100557.03;5000730;28;20056;-80
2021/07/23 03:29:14;;;;;;;15.63;8.25;;;;;;;16.13;79.62;100555.63;4999983;28;20052;-81
2021/07/23 03:31:41;;;;;;;12.65;8.15;;;;;;;16.09;79.78;100562.97;5000058;28;20115;-80
2021/07/23 03:34:08;;;;;;;13.23;8.13;;;;;;;16.06;80.00;100559.63;4999653;28;20058;-80
2021/07/23 03:36:35;;;;;;;16.83;8.30;;;;;;;16.06;80.08;100559.63;4998868;28;20042;-80
2021/07/23 03:39:02;;;;;;;13.40;8.73;;;;;;;16.08;80.51;100555.06;4998407;28;20406;-80
2021/07/23 03:41:28;;;;;;;13.30;8.20;;;;;;;16.09;80.26;100557.63;5022338;28;20104;-80
2021/07/23 03:43:55;;;;;;;11.55;8.35;;;;;;;16.10;80.03;100559.34;5033257;28;20046;-80
2021/07/23 03:46:21;;;;;;;15.43;8.32;;;;;;;16.12;80.25;100552.09;5030680;28;20053;-80
2021/07/23 03:48:48;;;;;;;12.65;8.80;;;;;;;16.11;80.11;100553.03;5019669;28;20060;-80
2021/07/23 03:51:15;;;;;;;12.38;8.50;;;;;;;16.17;80.20;100550.94;5017387;28;20048;-79
2021/07/23 03:53:41;;;;;;;13.80;9.05;;;;;;;16.19;79.85;100547.19;5017498;28;20065;-79
2021/07/23 03:56:08;;;;;;;14.07;9.05;;;;;;;16.21;79.47;100553.28;5015026;28;20056;-79
2021/07/23 03:58:36;;;;;;;11.75;8.52;;;;;;;16.24;79.95;100555.72;5015536;28;20053;-79
2021/07/23 04:01:04;;;;;;;12.57;8.32;;;;;;;16.28;79.54;100557.25;5015676;28;20064;-79
2021/07/23 04:03:34;;;;;;;11.70;8.65;;;;;;;16.30;79.29;100555.31;4999427;28;20057;-80
2021/07/23 04:06:04;;;;;;;18.70;10.68;;;;;;;16.29;78.72;100550.94;5024929;28;20109;-79
2021/07/23 04:08:31;;;;;;;13.48;8.82;;;;;;;16.25;79.20;100557.44;5026496;28;20050;-80
2021/07/23 04:10:57;;;;;;;13.23;9.02;;;;;;;16.18;79.20;100552.63;5032115;28;20102;-80
2021/07/23 04:13:24;;;;;;;12.77;8.70;;;;;;;16.14;79.16;100557.31;5034478;28;20105;-79
2021/07/23 04:15:51;;;;;;;12.88;8.20;;;;;;;16.16;79.37;100555.41;5033950;28;20065;-79
2021/07/23 04:18:18;;;;;;;13.68;9.00;;;;;;;16.25;79.32;100551.25;5032640;28;20061;-80
2021/07/23 04:20:44;;;;;;;11.95;8.32;;;;;;;16.29;78.74;100556.28;5033299;28;20037;-79
2021/07/23 04:23:11;;;;;;;12.25;8.05;;;;;;;16.30;78.91;100552.66;5032603;28;20046;-79
2021/07/23 04:25:39;;;;;;;13.23;8.57;;;;;;;16.33;78.63;100551.59;5034009;28;20093;-80
2021/07/23 04:28:06;;;;;;;12.98;8.15;;;;;;;16.33;78.34;100555.13;5033407;28;20102;-79
2021/07/23 04:30:33;;;;;;;14.68;8.27;;;;;;;16.36;78.93;100554.06;5034240;28;20077;-80
2021/07/23 04:33:00;;;;;;;11.60;8.27;;;;;;;16.41;79.09;100550.09;5033067;28;20062;-79
2021/07/23 04:35:27;;;;;;;12.70;8.75;;;;;;;16.43;78.15;100552.66;5030097;28;20046;-79
2021/07/23 04:37:53;;;;;;;10.70;7.53;;;;;;;16.41;78.13;100550.09;5029474;28;20076;-79
2021/07/23 04:40:20;;;;;;;13.32;8.98;;;;;;;16.44;77.96;100551.72;5014616;28;20057;-80
2021/07/23 04:42:47;;;;;;;12.68;8.43;;;;;;;16.43;78.18;100548.19;5017671;28;20046;-80
2021/07/23 04:45:15;;;;;;;14.60;8.65;;;;;;;16.46;78.47;100553.31;5018691;28;20046;-80
2021/07/23 04:47:43;;;;;;;13.50;8.77;;;;;;;16.47;78.44;100555.03;4998049;28;20842;-80
2021/07/23 04:50:09;;;;;;;11.93;8.07;;;;;;;16.51;78.51;100546.81;4998098;28;20092;-80
2021/07/23 04:52:36;;;;;;;12.80;7.93;;;;;;;16.64;78.71;100551.22;5018770;28;20376;-80
2021/07/23 04:55:08;;;;;;;13.45;8.23;;;;;;;16.71;78.10;100555.16;5025130;28;20088;-80
2021/07/23 04:57:45;;;;;;;12.30;8.45;;;;;;;16.77;77.93;100553.91;5021844;28;20046;-80
2021/07/23 05:00:12;;;;;;;13.23;7.90;;;;;;;16.82;77.86;100544.59;5018698;28;20050;-80
2021/07/23 05:02:44;;;;;;;13.27;8.93;;;;;;;16.90;77.79;100549.38;5019463;28;20053;-80
2021/07/23 05:05:13;;;;;;;13.23;9.10;;;;;;;16.93;76.97;100551.84;5004739;28;20053;-81
2021/07/23 05:07:40;;;;;;;13.27;7.72;;;;;;;16.98;77.23;100548.88;5024779;28;20466;-81
2021/07/23 05:10:08;;;;;;;10.93;8.30;;;;;;;17.10;76.99;100554.19;5018378;28;20050;-81
2021/07/23 05:12:37;;;;;;;13.38;8.80;;;;;;;17.16;76.87;100545.69;5015723;28;20054;-81
2021/07/23 05:15:07;;;;;;;10.57;8.00;;;;;;;17.25;76.39;100549.56;5015302;28;20053;-80
2021/07/23 05:17:36;;;;;;;12.95;8.90;;;;;;;17.29;75.02;100560.91;4999207;28;20078;-81
2021/07/23 05:20:04;;;;;;;15.57;9.20;;;;;;;17.26;75.39;100555.75;5017740;28;20050;-80
2021/07/23 05:22:31;;;;;;;14.95;8.75;;;;;;;17.25;74.98;100551.38;5017130;28;20054;-80
2021/07/23 05:25:01;;;;;;;;;;;;;;;17.28;75.34;100564.53;5018646;28;20053;-81
2021/07/23 05:27:29;;;;;;;12.80;8.30;;;;;;;17.35;75.43;100563.13;4999838;28;20296;-80
2021/07/23 05:29:58;;;;;;;13.00;8.90;;;;;;;17.42;74.78;100551.00;5015044;28;20050;-80
2021/07/23 05:32:24;;;;;;;15.15;8.48;;;;;;;17.51;74.40;100553.00;5016892;28;20137;-81
2021/07/23 05:34:51;;;;;;;12.48;8.43;;;;;;;17.52;74.21;100549.34;5016876;28;20744;-81
2021/07/23 05:37:17;;;;;;;14.80;8.93;;;;;;;17.58;74.06;100553.41;5016589;28;20574;-81
2021/07/23 05:39:45;;;;;;;14.05;8.38;;;;;;;17.64;74.05;100555.66;5000063;28;20057;-81
2021/07/23 05:42:13;;;;;;;12.40;7.72;;;;;;;17.73;73.99;100557.69;5014042;28;20049;-81
2021/07/23 05:44:39;;;;;;;13.52;8.57;;;;;;;17.83;73.65;100558.69;5022934;28;20109;-81
2021/07/23 05:47:06;;;;;;;12.95;8.55;;;;;;;17.95;73.00;100554.22;5020473;28;20054;-81
2021/07/23 05:49:32;;;;;;;12.70;8.20;;;;;;;18.10;72.14;100553.94;5020231;28;20125;-80
2021/07/23 05:51:59;;;;;;;12.75;9.13;;;;;;;18.17;72.06;100552.50;5023038;28;20050;-81
2021/07/23 05:54:27;;;;;;;13.40;8.38;;;;;;;18.27;71.83;100551.78;5025624;28;20159;-80
2021/07/23 05:56:54;;;;;;;14.93;8.85;;;;;;;18.37;72.10;100548.31;5024490;28;20049;-78
2021/07/23 05:59:21;;;;;;;17.38;8.90;;;;;;;18.52;71.54;100555.19;5023446;28;20460;-78
2021/07/23 06:01:47;;;;;;;12.93;8.48;;;;;;;18.66;71.10;100554.13;5033235;28;20066;-80
2021/07/23 06:04:14;;;;;;;12.05;8.35;;;;;;;18.77;69.98;100545.22;5033784;28;20137;-81
2021/07/23 06:06:41;;;;;;;12.70;8.55;;;;;;;18.86;69.43;100549.91;5029983;28;20045;-78
2021/07/23 06:09:08;;;;;;;13.85;8.57;;;;;;;19.00;69.01;100551.47;5031948;28;20049;-78
2021/07/23 06:11:38;;;;;;;13.43;8.55;;;;;;;19.12;68.29;100551.34;5027254;28;20050;-78
2021/07/23 06:14:05;;;;;;;16.10;8.73;;;;;;;19.22;67.49;100551.44;5028920;28;20073;-78
2021/07/23 06:16:32;;;;;;;12.95;8.77;;;;;;;19.35;67.74;100559.41;5005674;28;20086;-79
2021/07/23 06:19:00;;;;;;;14.35;9.13;;;;;;;19.59;67.31;100554.72;5016508;28;20104;-79
2021/07/23 06:21:27;;;;;;;14.55;8.35;;;;;;;19.86;66.11;100555.13;5020087;28;20057;-79
2021/07/23 06:23:55;;;;;;;12.85;8.55;;;;;;;20.19;64.13;100553.28;5022967;28;20042;-79
2021/07/23 06:26:22;;;;;;;12.73;8.77;;;;;;;20.46;63.62;100550.16;5023260;28;20560;-79
2021/07/23 06:28:49;;;;;;;12.32;8.50;;;;;;;20.85;63.72;100551.22;5020756;28;20053;-79
2021/07/23 06:31:15;;;;;;;13.00;8.88;;;;;;;21.27;60.37;100560.91;5019975;28;20136;-81
2021/07/23 06:33:43;;;;;;;12.88;8.43;;;;;;;21.42;59.09;100560.53;5021244;28;20046;-81
2021/07/23 06:36:09;;;;;;;12.15;8.13;;;;;;;21.59;59.58;100554.47;5004963;28;20057;-80
2021/07/23 06:38:37;;;;;;;13.18;8.80;;;;;;;21.79;58.32;100558.91;5021764;28;20072;-80
2021/07/23 06:41:06;;;;;;;11.82;8.57;;;;;;;21.94;57.28;100560.22;5028782;28;20055;-81
2021/07/23 06:43:33;;;;;;;14.02;8.20;;;;;;;22.01;56.21;100558.69;5042007;28;20045;-81
2021/07/23 06:46:01;;;;;;;12.52;8.25;;;;;;;22.08;56.10;100558.13;5040712;28;20053;-81
2021/07/23 06:48:29;;;;;;;13.35;8.35;;;;;;;22.13;56.04;100558.56;5038113;28;20113;-80
2021/07/23 06:50:56;;;;;;;12.73;8.18;;;;;;;22.27;55.59;100564.38;5018901;28;20129;-81
2021/07/23 06:53:24;;;;;;;12.35;8.48;;;;;;;22.38;54.95;100560.66;5027299;28;20162;-81
2021/07/23 06:55:53;;;;;;;10.57;7.72;;;;;;;22.55;56.63;100561.78;5028999;28;20160;-80
2021/07/23 06:58:20;;;;;;;13.60;8.43;;;;;;;22.79;55.75;100561.34;5028230;28;20053;-80
2021/07/23 07:00:47;;;;;;;10.85;8.10;;;;;;;22.97;55.37;100562.28;5025249;28;20217;-81
2021/07/23 07:03:16;;;;;;;12.80;7.93;;;;;;;23.24;54.91;100569.56;5014041;28;20046;-81
2021/07/23 07:05:42;;;;;;;12.23;8.02;;;;;;;23.53;54.44;100561.34;5023725;28;20069;-81
2021/07/23 07:08:09;;;;;;;12.63;8.77;;;;;;;23.74;53.45;100562.78;5024232;28;20060;-81
2021/07/23 07:10:36;;;;;;;13.75;8.45;;;;;;;23.83;52.91;100566.41;5017100;28;20054;-81
2021/07/23 07:13:03;;;;;;;11.63;8.05;;;;;;;23.74;53.17;100561.91;5031406;28;20072;-81
2021/07/23 07:15:30;;;;;;;15.35;8.77;;;;;;;23.72;54.34;100555.81;5019296;28;20761;-80
2021/07/23 07:18:02;;;;;;;11.15;7.68;;;;;;;23.91;53.37;100552.97;5015020;28;20090;-80
2021/07/23 07:20:31;;;;;;;16.08;7.60;;;;;;;23.88;52.61;100558.69;5015374;28;20085;-81
2021/07/23 07:22:58;;;;;;;11.77;8.10;;;;;;;23.61;52.29;100554.16;5017518;28;20109;-80
2021/07/23 07:25:31;;;;;;;17.60;7.97;;;;;;;23.54;51.89;100550.38;5019934;28;20130;-80
2021/07/23 07:28:00;;;;;;;13.52;8.07;;;;;;;23.45;51.56;100560.19;5015869;28;20054;-81
2021/07/23 07:30:27;;;;;;;11.05;7.50;;;;;;;23.50;51.96;100553.47;5016892;28;20039;-81
2021/07/23 07:32:54;;;;;;;12.20;7.38;;;;;;;23.80;53.29;100550.47;5018585;28;20038;-80
2021/07/23 07:35:21;;;;;;;12.65;8.52;;;;;;;24.00;50.61;100545.78;5016823;28;20077;-81
2021/07/23 07:37:48;;;;;;;12.88;8.20;;;;;;;24.02;50.52;100550.03;5016886;28;20030;-81
2021/07/23 07:40:17;;;;;;;13.43;8.75;;;;;;;24.04;52.53;100542.63;5016944;28;20038;-80
2021/07/23 07:42:45;;;;;;;14.38;8.10;;;;;;;24.10;51.82;100533.84;5012429;28;20115;-80
2021/07/23 07:45:13;;;;;;;14.35;8.75;;;;;;;24.36;51.02;100547.50;5010053;28;20137;-80
2021/07/23 07:47:41;;;;;;;14.43;8.23;;;;;;;24.31;49.02;100543.53;5007905;28;20225;-80
2021/07/23 07:50:10;;;;;;;10.18;7.88;;;;;;;24.41;48.40;100544.28;5001622;28;20146;-81
2021/07/23 07:52:38;;;;;;;12.40;8.33;;;;;;;24.37;49.09;100545.63;5000640;28;20457;-80
2021/07/23 07:55:05;;;;;;;14.55;8.23;;;;;;;24.41;48.52;100545.13;4997631;28;20133;-81
2021/07/23 07:57:32;;;;;;;12.52;8.15;;;;;;;24.29;48.49;100542.84;4998440;28;20054;-81
2021/07/23 08:00:00;;;;;;;9.80;7.55;;;;;;;24.08;48.40;100541.28;4998271;28;20052;-81
2021/07/23 08:02:26;;;;;;;12.18;7.30;;;;;;;24.22;48.78;100541.75;5004282;28;20050;-81
2021/07/23 08:04:53;;;;;;;11.75;7.95;;;;;;;24.33;49.50;100541.53;4994753;28;20105;-82
2021/07/23 08:07:28;;;;;;;12.50;8.25;;;;;;;24.34;49.21;100546.78;4999117;28;20050;-82
2021/07/23 08:10:03;;;;;;;11.18;7.00;;;;;;;24.50;48.50;100542.50;4995205;28;20046;-81
2021/07/23 08:12:31;;;;;;;10.63;7.90;;;;;;;24.69;47.43;100535.03;5006428;28;20081;-81
2021/07/23 08:14:59;;;;;;;9.73;7.18;;;;;;;24.79;45.49;100541.19;4992324;28;20076;-82
2021/07/23 08:17:38;;;;;;;11.45;7.78;;;;;;;24.69;45.78;100534.19;4994015;28;20062;-81
2021/07/23 08:20:05;;;;;;;11.40;7.78;;;;;;;24.70;46.33;100535.88;4999014;28;20146;-80
2021/07/23 08:22:33;;;;;;;9.52;7.07;;;;;;;24.94;46.91;100527.06;4996227;28;20056;-80
2021/07/23 08:25:01;;;;;;;8.52;6.43;;;;;;;25.20;44.66;100525.16;4996601;28;20050;-80
2021/07/23 08:27:30;;;;;;;13.00;7.57;;;;;;;25.34;45.06;100529.97;5006966;28;20046;-81
2021/07/23 08:29:58;;;;;;;11.55;6.82;;;;;;;25.46;45.48;100525.97;5009155;28;20576;-80
2021/07/23 08:32:26;;;;;;;12.10;7.35;;;;;;;25.35;44.65;100522.66;5009653;28;20173;-80
2021/07/23 08:34:59;;;;;;;11.05;7.18;;;;;;;25.37;44.74;100516.09;5006141;28;20094;-80
2021/07/23 08:37:29;;;;;;;11.05;6.95;;;;;;;25.41;43.37;100517.47;5007712;28;20122;-81
2021/07/23 08:40:04;;;;;;;11.98;7.00;;;;;;;25.33;44.57;100522.88;5011557;28;20042;-81
2021/07/23 08:42:38;;;;;;;9.68;6.97;;;;;;;25.41;44.65;100519.31;5008589;28;20053;-82
2021/07/23 08:45:09;;;;;;;10.55;7.00;;;;;;;25.46;44.19;100520.53;5014696;28;20035;-80
2021/07/23 08:47:36;;;;;;;12.18;8.55;;;;;;;25.56;43.63;100508.69;5002142;28;20113;-81
2021/07/23 08:50:04;;;;;;;10.32;6.80;;;;;;;25.69;44.19;100509.94;5009592;28;20078;-81
2021/07/23 08:52:44;;;;;;;10.77;7.20;;;;;;;25.88;44.95;100508.78;5007579;28;20496;-81
2021/07/23 08:55:14;;;;;;;11.30;6.78;;;;;;;26.03;44.52;100508.94;5003229;28;20057;-81
2021/07/23 08:57:42;;;;;;;9.45;7.03;;;;;;;26.12;44.42;100510.66;5003324;28;20050;-81
2021/07/23 09:00:17;;;;;;;12.05;7.32;;;;;;;26.01;42.36;100509.13;5005042;28;20047;-81
2021/07/23 09:03:00;;;;;;;11.13;6.95;;;;;;;25.80;42.67;100512.34;5006551;28;20054;-82
2021/07/23 09:05:35;;;;;;;11.38;8.02;;;;;;;25.63;43.64;100507.91;5012062;28;20105;-81
2021/07/23 09:08:15;;;;;;;9.30;6.97;;;;;;;25.59;42.77;100513.78;5009835;28;20051;-81
2021/07/23 09:10:43;;;;;;;9.95;7.20;;;;;;;25.59;42.75;100502.94;4990396;28;20057;-81
2021/07/23 09:13:23;;;;;;;12.63;7.07;;;;;;;25.62;42.11;100508.06;5006955;28;20056;-81
2021/07/23 09:15:57;;;;;;;13.85;7.53;;;;;;;25.75;42.48;100501.13;5007293;28;20046;-80
2021/07/23 09:18:33;;;;;;;9.23;7.03;;;;;;;25.78;42.32;100505.38;5022237;28;20048;-81
2021/07/23 09:21:04;;;;;;;9.55;7.22;;;;;;;25.82;42.73;100498.59;5020703;28;20068;-81
2021/07/23 09:23:38;;;;;;;9.65;7.00;;;;;;;25.78;42.53;100487.25;5009388;28;20045;-81
2021/07/23 09:26:12;;;;;;;9.80;7.40;;;;;;;25.79;42.21;100499.78;5026848;28;20136;-81
2021/07/23 09:28:49;;;;;;;7.50;6.40;;;;;;;25.74;42.37;100496.72;5024369;28;20071;-81
2021/07/23 09:31:40;;;;;;;7.82;6.60;;;;;;;25.66;41.96;100493.13;5035012;28;20060;-81
2021/07/23 09:34:30;;;;;;;10.40;7.50;;;;;;;25.53;41.41;100493.59;5027765;28;20045;-81
2021/07/23 09:37:11;;;;;;;9.45;7.20;;;;;;;25.45;41.52;100483.59;5040157;28;20026;-81
2021/07/23 09:39:58;;;;;;;10.80;7.30;;;;;;;25.43;42.92;100482.91;5063531;22;20117;-80
2021/07/23 09:42:26;;;;;;;10.05;6.50;;;;;;;25.39;41.89;100475.25;5006165;28;20050;-80
2021/07/23 09:45:03;;;;;;;12.90;7.72;;;;;;;25.43;42.11;100476.63;5005523;28;20035;-81
2021/07/23 09:47:30;;;;;;;11.63;7.78;;;;;;;25.27;41.68;100474.72;4991905;28;20046;-80
2021/07/23 09:49:57;;;;;;;9.82;7.53;;;;;;;25.17;41.82;100471.31;4967573;28;20427;-80
2021/07/23 09:52:25;;;;;;;10.32;7.32;;;;;;;25.10;42.50;100468.41;4969599;28;20050;-80
2021/07/23 09:54:52;;;;;;;9.65;7.82;;;;;;;25.12;41.72;100468.22;5010965;23;20145;-81
2021/07/23 09:57:23;;;;;;;9.32;7.43;;;;;;;25.03;43.14;100459.22;4985070;28;20457;-81
2021/07/23 10:00:10;;;;;;;12.38;7.78;;;;;;;25.10;42.68;100462.97;4994810;28;20062;-82
2021/07/23 10:02:47;;;;;;;8.70;7.43;;;;;;;25.13;42.80;100453.69;4983069;28;20051;-81
2021/07/23 10:05:27;;;;;;;10.00;7.68;;;;;;;25.18;42.57;100446.72;4985528;28;20084;-81
2021/07/23 10:08:02;;;;;;;11.52;7.97;;;;;;;25.23;41.72;100448.09;4990603;28;20076;-80
2021/07/23 10:10:32;;;;;;;11.25;7.95;;;;;;;25.29;42.16;100448.31;4981888;28;20090;-81
2021/07/23 10:13:00;;;;;;;11.73;8.70;;;;;;;25.37;41.56;100442.88;4993576;28;20109;-82
2021/07/23 10:15:29;;;;;;;13.80;8.38;;;;;;;25.47;41.47;100451.75;4991159;28;20142;-80
2021/07/23 10:17:56;;;;;;;10.40;8.48;;;;;;;25.39;41.83;100443.56;4994371;28;20065;-80
2021/07/23 10:20:23;;;;;;;11.95;8.90;;;;;;;25.33;41.63;100438.00;4998923;28;20129;-80
2021/07/23 10:22:54;;;;;;;12.15;8.75;;;;;;;25.45;42.44;100437.50;4990757;28;20054;-79
2021/07/23 10:25:25;;;;;;;9.13;7.50;;;;;;;25.63;42.00;100428.41;4986145;28;20043;-80
2021/07/23 10:27:53;;;;;;;13.10;7.85;;;;;;;25.78;41.32;100427.56;4982520;28;20105;-80
2021/07/23 10:30:36;;;;;;;10.82;8.27;;;;;;;25.76;41.78;100426.03;4971593;28;20054;-80
2021/07/23 10:33:04;;;;;;;10.68;7.90;;;;;;;25.75;41.32;100408.91;4987047;28;20501;-79
2021/07/23 10:35:34;;;;;;;12.93;8.25;;;;;;;25.94;40.84;100420.44;4970761;28;20081;-82
2021/07/23 10:38:02;;;;;;;11.20;8.32;;;;;;;26.11;41.92;100422.13;4988864;28;20093;-82
2021/07/23 10:40:37;;;;;;;11.60;8.57;;;;;;;26.17;40.07;100418.72;4977521;28;20050;-79
2021/07/23 10:43:34;;;;;;;13.25;8.98;;;;;;;26.29;40.00;100414.63;4982415;28;20061;-80
2021/07/23 10:46:02;;;;;;;11.05;8.38;;;;;;;26.42;40.87;100411.41;4970194;28;20109;-80
2021/07/23 10:48:49;;;;;;;10.65;8.05;;;;;;;26.57;39.88;100406.94;4978748;28;20079;-80
2021/07/23 10:51:48;;;;;;;11.68;8.32;;;;;;;26.67;39.30;100410.28;4969016;28;20574;-80
2021/07/23 10:54:18;;;;;;;12.07;8.98;;;;;;;26.72;40.38;100394.31;4987566;28;20453;-80
2021/07/23 10:57:04;;;;;;;10.43;9.27;;;;;;;26.81;40.14;100400.56;4982384;28;20064;-81
2021/07/23 11:00:04;;;;;;;11.38;9.32;;;;;;;26.63;39.68;100394.53;4990819;28;20053;-80
2021/07/23 11:02:30;;;;;;;10.63;8.35;;;;;;;26.56;39.19;100394.38;4987883;28;20061;-81
2021/07/23 11:05:13;;;;;;;12.80;8.68;;;;;;;26.63;38.51;100389.94;4980896;28;20069;-82
2021/07/23 11:07:43;;;;;;;11.48;8.77;;;;;;;26.74;38.93;100386.84;4955163;28;20054;-81
2021/07/23 11:10:13;;;;;;;13.82;9.15;;;;;;;26.87;38.88;100386.28;4987805;28;20046;-81
2021/07/23 11:12:46;;;;;;;12.30;8.95;;;;;;;26.88;38.78;100387.97;4982517;28;20054;-80
2021/07/23 11:15:14;;;;;;;11.88;8.88;;;;;;;26.86;38.70;100379.16;4986851;28;20055;-81
2021/07/23 11:17:50;;;;;;;12.00;9.18;;;;;;;26.67;39.04;100374.13;4990885;28;20047;-81
2021/07/23 11:20:23;;;;;;;12.55;9.23;;;;;;;26.71;38.83;100379.06;4972979;28;20047;-81
2021/07/23 11:22:51;;;;;;;10.65;8.73;;;;;;;26.85;38.48;100375.59;4982059;28;20074;-81
2021/07/23 11:25:19;;;;;;;10.27;8.13;;;;;;;26.96;38.57;100374.34;4979878;28;20055;-81
2021/07/23 11:27:50;;;;;;;9.93;8.48;;;;;;;27.11;38.27;100379.88;4979762;28;20129;-81